TENO2: Tenkiller Lake

Data processed at Sun Jan 13 2019 23:32


All information presented herein is the property of the government of the United States of America and may be revised or deleted at any time without prior notice.
Dissemination of this information without the expressed written consent of the Public Affairs Office, Tulsa District U.S. Army Corps of Engineers is strictly prohibited.
These data are gathered electronically and, as presented, have not undergone any form of quality control. These data are not guaranteed to be valid or correct.
Go to home page.
Go to station list.
Go to home page.

Upstream stations:

Downstream station:
Previous Day
Next Day
Current Day
    
SHEF ID:       TENO2     Tenkiller Lake
STATION TYPE:  Reservoir
Normal Pool:  Bottom =   594.50, Top =   632.00

               PRECIP PRECIP(A) ELEVATION   STORAGE   TW-ELEV    INFLOW   RELEASE  AIR-TEMP  WIND-DIRWIND-SPEED REL-HUMID SOLAR-RAD   VOLTAGE  BAT-LOAD
                   in        in        ft     ac-ft        ft       cfs       cfs         F       deg       mph         %      W/m2      volt      volt
              Ccp-Rev   Ccp-Rev   Ccp-Rev   Ccp-Rev   Ccp-Rev  Regi-Rev  Regi-Rev   Ccp-Rev   Ccp-Rev   Ccp-Rev   Ccp-Rev   Ccp-Rev   Ccp-Rev   Ccp-Rev
(US/Central)
01/13 00:00      0.00      ----    639.17    765990    487.98      4727      5050     34.84    222.60      2.80     57.96      0.00     13.61     12.93
01/13 01:00      0.00      ----    639.16    765848    488.04      4051      5100     34.68    224.90      2.40     51.83      0.00     13.61     12.93
01/13 02:00      0.00      ----    639.16    765848    488.05      4747      5100     34.38    226.90      3.00     60.74      0.00     13.61     12.92
01/13 03:00      0.00      ----    639.15    765707    488.07      4757      5100     34.43    222.70      3.20     47.76      0.00     13.61     12.93
01/13 04:00      0.00      ----    639.15    765707    487.96      5100      5100     34.50    228.60      3.30     50.07      0.00     13.61     12.93
01/13 05:00      0.00      ----    639.16    765848    488.11      5100      5100     34.65    218.60      3.50     50.61      0.00     13.61     12.93
01/13 06:00      0.00      ----    639.16    765848    487.94      5443      5100     34.65    224.60      3.30     47.51      0.00     13.61     12.93
01/13 07:00      0.00      ----    639.16    765848    488.04      5443      5100     34.70    224.70      3.10     53.71      0.00     13.61     12.93
01/13 08:00      0.00      ----    639.16    765848    488.05      5443      5100     34.56    217.50      2.80     52.33      0.00     13.61     12.93
01/13 09:00      0.00      ----    639.16    765848    487.98      6129      5100     34.47    217.70      2.80     51.27      7.00     13.61     12.93
01/13 10:00      0.00      ----    639.17    765990    487.91      5786      5100     34.84    219.40      2.80     48.46     48.50     13.61     12.93
01/13 11:00      0.00      ----    639.19    766274    487.92      6472      5100     35.26    217.00      3.30     52.19     49.10     13.61     12.92
01/13 12:00      0.00      ----    639.18    766132    488.12      6472      5100     35.56    207.70      3.40     49.50     93.30     13.61     12.93
01/13 13:00      0.00      ----    639.20    766415    488.00      6815      5100     35.78    214.00      3.50     50.66    160.10     13.61     12.93
01/13 14:00      0.00      ----    639.20    766415    488.14      6472      5100     35.64    219.20      3.10     45.33    106.90     13.61     12.93
01/13 15:00      0.00      ----    639.22    766699    488.10      7501      5100     35.37    224.80      3.20     49.69    109.70     13.61     12.93
01/13 16:00      0.00      ----    639.23    766841    487.96      7158      5100     35.15    226.40      2.80     52.57     59.50     13.61     12.93
01/13 17:00      0.00      ----    639.25    767124    488.01      7501      5100     34.95    227.40      2.90     44.81      9.10     13.61     12.93
01/13 18:00      0.00      ----    639.26    767266    487.92      7158      5100     34.45    232.10      2.50     43.60      0.00     13.61     12.93
01/13 19:00      0.00      ----    639.27    767407    487.95      6815      5100     34.14    226.30      2.30     50.28      0.00     13.61     12.93
01/13 20:00      0.00      ----    639.28    767549    487.86      6472      5100     34.12    232.00      2.00     47.63      0.00     13.61     12.93
01/13 21:00      0.00      ----    639.28    767549    487.89      6129      5100     34.11    222.80      2.10     54.00      0.00     13.61     12.93
01/13 22:00      0.00      ----    639.29    767691    487.95      6473      5100     34.11    213.60      1.60     53.49      0.00     13.61     12.93
01/13 23:00      ----      ----      ----      ----      ----      -901      -901      ----      ----      ----      ----      ----      ----      ----